Time;durP1;ratioP1;P1;durP2;ratioP2;P2;SDS_P1;SDS_P2;PMS_P1;PMS_P2;Temp;Humidity;BMP_temperature;BMP_pressure;BME280_temperature;BME280_humidity;BME280_pressure;Samples;Min_cycle;Max_cycle;Signal;HPM_P1;HPM_P2
2021/08/11 00:02:25;;;;;;;1999.90;999.90;;;;;;;20.65;81.07;95703.72;5111545;28;20194;-64
2021/08/11 00:04:53;;;;;;;1999.90;999.90;;;;;;;20.70;80.37;95711.34;5111857;28;20204;-65
2021/08/11 00:07:21;;;;;;;1999.90;999.90;;;;;;;20.70;79.54;95711.34;5111772;28;20282;-65
2021/08/11 00:09:48;;;;;;;1999.90;999.90;;;;;;;20.74;79.24;95709.53;5111370;28;20222;-66
2021/08/11 00:12:15;;;;;;;1999.90;999.90;;;;;;;20.81;78.97;95711.53;5111592;28;20203;-65
2021/08/11 00:14:44;;;;;;;1999.90;999.90;;;;;;;20.91;76.73;95714.34;5111643;28;20259;-65
2021/08/11 00:17:11;;;;;;;1999.90;999.90;;;;;;;20.89;76.66;95707.88;5111594;28;20229;-65
2021/08/11 00:19:38;;;;;;;1999.90;999.90;;;;;;;20.89;76.54;95706.00;5111279;28;20195;-65
2021/08/11 00:22:05;;;;;;;1999.90;999.90;;;;;;;20.95;76.05;95714.38;5111313;28;20195;-65
2021/08/11 00:24:33;;;;;;;1999.90;999.90;;;;;;;21.04;74.67;95713.03;5111069;28;20976;-65
2021/08/11 00:27:00;;;;;;;1999.90;999.90;;;;;;;21.06;74.87;95720.59;5111407;28;20679;-65
2021/08/11 00:29:27;;;;;;;1999.90;999.90;;;;;;;20.98;75.70;95718.94;5110864;28;20718;-65
2021/08/11 00:31:56;;;;;;;1999.90;999.90;;;;;;;20.97;75.94;95718.19;5111060;28;20579;-66
2021/08/11 00:34:23;;;;;;;1999.90;999.90;;;;;;;20.93;76.32;95721.91;5111267;28;20638;-65
2021/08/11 00:36:50;;;;;;;1999.90;999.90;;;;;;;20.91;76.44;95716.97;5111262;28;20685;-65
2021/08/11 00:39:17;;;;;;;1999.90;999.90;;;;;;;20.90;76.44;95718.09;5110477;28;20191;-65
2021/08/11 00:41:45;;;;;;;1999.90;999.90;;;;;;;20.95;76.33;95722.31;5108676;28;20714;-65
2021/08/11 00:44:12;;;;;;;1999.90;999.90;;;;;;;20.94;76.44;95726.06;5110664;28;20229;-65
2021/08/11 00:46:41;;;;;;;1999.90;999.90;;;;;;;20.95;76.36;95725.72;5110581;28;20659;-65
2021/08/11 00:49:13;;;;;;;1999.90;999.90;;;;;;;20.94;76.57;95720.78;5110622;28;20227;-64
2021/08/11 00:51:41;;;;;;;1999.90;999.90;;;;;;;20.89;76.82;95716.56;5110741;28;20183;-64
2021/08/11 00:54:09;;;;;;;1999.90;999.90;;;;;;;20.90;76.62;95715.44;5110612;28;20666;-64
2021/08/11 00:56:39;;;;;;;1999.90;999.90;;;;;;;20.76;77.75;95714.47;5110851;28;20218;-65
2021/08/11 00:59:06;;;;;;;1999.90;999.90;;;;;;;20.74;78.09;95711.41;5110570;28;20199;-65
2021/08/11 01:01:34;;;;;;;1999.90;999.90;;;;;;;20.85;77.79;95707.06;5110584;28;20667;-64
2021/08/11 01:04:03;;;;;;;1999.90;999.90;;;;;;;20.85;77.94;95709.69;5110362;28;20235;-65
2021/08/11 01:06:32;;;;;;;1999.90;999.90;;;;;;;20.78;78.14;95706.94;5110396;28;20202;-64
2021/08/11 01:08:59;;;;;;;1999.90;999.90;;;;;;;20.83;78.29;95706.63;5105241;28;20206;-65
2021/08/11 01:11:27;;;;;;;1999.90;999.90;;;;;;;20.88;78.32;95706.34;5110276;28;20199;-64
2021/08/11 01:13:55;;;;;;;1999.90;999.90;;;;;;;20.89;78.42;95699.94;5110131;28;20199;-65
2021/08/11 01:16:22;;;;;;;1999.90;999.90;;;;;;;20.84;78.66;95702.88;5101731;28;20218;-66
2021/08/11 01:18:49;;;;;;;1999.90;999.90;;;;;;;20.82;78.36;95700.59;5089964;28;20207;-65
2021/08/11 01:21:23;;;;;;;1999.90;999.90;;;;;;;20.63;79.17;95696.13;5107516;28;20217;-65
2021/08/11 01:24:00;;;;;;;1999.90;999.90;;;;;;;20.53;79.55;95707.28;5110089;28;20191;-66
2021/08/11 01:26:40;;;;;;;1999.90;999.90;;;;;;;20.45;79.89;95697.72;5109966;28;20239;-65
2021/08/11 01:29:10;;;;;;;1999.90;999.90;;;;;;;20.40;80.57;95700.66;5110172;28;20565;-64
2021/08/11 01:31:52;;;;;;;1999.90;999.90;;;;;;;20.40;80.45;95692.72;5110283;28;20215;-65
2021/08/11 01:34:24;;;;;;;1999.90;999.90;;;;;;;20.34;80.84;95691.47;5110063;28;20176;-65
2021/08/11 01:36:53;;;;;;;1999.90;999.90;;;;;;;20.39;80.73;95693.06;5109505;28;20667;-64
2021/08/11 01:39:35;;;;;;;1999.90;999.90;;;;;;;20.44;80.89;95687.50;5109698;28;20677;-66
2021/08/11 01:42:07;;;;;;;1999.90;999.90;;;;;;;20.35;81.31;95687.72;5109689;28;20679;-64
2021/08/11 01:44:39;;;;;;;1999.90;999.90;;;;;;;20.28;81.64;95686.81;5109650;28;20191;-65
2021/08/11 01:47:10;;;;;;;1999.90;999.90;;;;;;;20.06;81.94;95673.25;5109952;28;20191;-64
2021/08/11 01:49:40;;;;;;;1999.90;999.90;;;;;;;19.67;84.05;95684.91;5109429;28;20210;-64
2021/08/11 01:52:08;;;;;;;1999.90;999.90;;;;;;;19.61;84.79;95683.66;5109611;28;20551;-65
2021/08/11 01:54:37;;;;;;;1999.90;999.90;;;;;;;19.25;86.82;95679.47;5109522;28;20195;-65
2021/08/11 01:57:06;;;;;;;1999.90;999.90;;;;;;;19.18;87.85;95680.06;5107705;28;20655;-65
2021/08/11 01:59:33;;;;;;;1999.90;999.90;;;;;;;19.34;87.05;95687.94;5100815;28;20198;-66
2021/08/11 02:02:01;;;;;;;1999.90;999.90;;;;;;;19.41;87.23;95684.69;5105926;27;20229;-65
2021/08/11 02:04:30;;;;;;;1999.90;999.90;;;;;;;19.42;87.22;95692.28;5107863;27;20746;-66
2021/08/11 02:06:59;;;;;;;1999.90;999.90;;;;;;;19.39;87.28;95692.94;5087549;28;20705;-65
2021/08/11 02:09:28;;;;;;;1999.90;999.90;;;;;;;19.45;86.92;95701.38;5110434;27;20203;-64
2021/08/11 02:11:56;;;;;;;1999.90;999.90;;;;;;;19.61;86.27;95692.31;5129183;27;20198;-66
2021/08/11 02:14:23;;;;;;;1999.90;999.90;;;;;;;19.57;86.42;95686.22;5130246;28;20209;-65
2021/08/11 02:16:59;;;;;;;1999.90;999.90;;;;;;;19.56;86.50;95689.19;5111873;28;20195;-65
2021/08/11 02:19:26;;;;;;;1999.90;999.90;;;;;;;19.56;86.42;95692.59;5103346;28;20286;-67
2021/08/11 02:21:53;;;;;;;1999.90;999.90;;;;;;;19.45;86.86;95694.25;5109336;28;20222;-65
2021/08/11 02:24:22;;;;;;;1999.90;999.90;;;;;;;19.49;86.52;95692.44;5109227;28;20195;-65
2021/08/11 02:26:53;;;;;;;1999.90;999.90;;;;;;;19.48;86.20;95693.53;5109443;28;20205;-66
2021/08/11 02:29:39;;;;;;;1999.90;999.90;;;;;;;19.44;86.17;95700.63;5109504;28;20184;-64
2021/08/11 02:32:13;;;;;;;1999.90;999.90;;;;;;;19.39;86.42;95698.22;5109285;28;20179;-64
2021/08/11 02:34:46;;;;;;;1999.90;999.90;;;;;;;19.33;86.99;95707.50;5109557;28;20860;-64
2021/08/11 02:37:16;;;;;;;1999.90;999.90;;;;;;;19.29;87.03;95711.94;5109172;28;20198;-67
2021/08/11 02:39:55;;;;;;;1999.90;999.90;;;;;;;19.29;86.75;95702.16;5108455;28;20203;-67
2021/08/11 02:42:27;;;;;;;1999.90;999.90;;;;;;;19.32;86.71;95706.75;5106712;28;20561;-64
2021/08/11 02:44:57;;;;;;;1999.90;999.90;;;;;;;19.37;86.62;95708.34;5120738;28;20194;-67
2021/08/11 02:47:25;;;;;;;1999.90;999.90;;;;;;;19.41;86.35;95700.53;5109747;28;20201;-65
2021/08/11 02:49:55;;;;;;;1999.90;999.90;;;;;;;19.41;85.96;95698.66;5112902;28;20227;-65
2021/08/11 02:52:24;;;;;;;1999.90;999.90;;;;;;;19.38;86.01;95701.97;5124732;27;20235;-65
2021/08/11 02:54:54;;;;;;;1999.90;999.90;;;;;;;19.39;86.05;95694.81;5113024;28;20198;-66
2021/08/11 02:57:22;;;;;;;1999.90;999.90;;;;;;;19.52;85.49;95696.28;5113100;28;20183;-65
2021/08/11 02:59:50;;;;;;;1999.90;999.90;;;;;;;19.55;85.58;95692.94;5112817;28;20198;-65
2021/08/11 03:02:17;;;;;;;1999.90;999.90;;;;;;;19.52;85.76;95699.69;5112023;27;20756;-65
2021/08/11 03:04:45;;;;;;;1999.90;999.90;;;;;;;19.53;85.52;95698.53;5117758;27;20206;-64
2021/08/11 03:07:12;;;;;;;1999.90;999.90;;;;;;;19.61;85.16;95694.19;5092957;28;20211;-65
2021/08/11 03:09:39;;;;;;;1999.90;999.90;;;;;;;19.63;84.97;95700.63;5092477;28;20583;-66
2021/08/11 03:12:11;;;;;;;1999.90;999.90;;;;;;;19.65;84.91;95700.31;5092244;28;20200;-65
2021/08/11 03:14:40;;;;;;;1999.90;999.90;;;;;;;19.74;84.60;95703.50;5107366;28;20207;-64
2021/08/11 03:17:11;;;;;;;1999.90;999.90;;;;;;;19.77;84.70;95703.56;5111045;28;20199;-63
2021/08/11 03:19:40;;;;;;;1999.90;999.90;;;;;;;19.67;85.02;95700.72;5093521;28;20210;-64
2021/08/11 03:22:09;;;;;;;1999.90;999.90;;;;;;;19.58;85.73;95700.91;5092104;28;20695;-65
2021/08/11 03:24:37;;;;;;;1999.90;999.90;;;;;;;19.57;85.74;95707.31;5101060;28;20571;-64
2021/08/11 03:27:04;;;;;;;1999.90;999.90;;;;;;;19.49;86.35;95710.88;5112435;28;20521;-65
2021/08/11 03:29:33;;;;;;;1999.90;999.90;;;;;;;19.59;86.04;95707.72;5112308;28;20445;-63
2021/08/11 03:32:01;;;;;;;1999.90;999.90;;;;;;;19.76;84.91;95712.59;5113272;28;20535;-64
2021/08/11 03:34:28;;;;;;;1999.90;999.90;;;;;;;19.78;84.96;95709.59;5112220;28;20427;-64
2021/08/11 03:36:55;;;;;;;1999.90;999.90;;;;;;;19.87;84.22;95704.91;5116012;27;20819;-62
2021/08/11 03:39:23;;;;;;;1999.90;999.90;;;;;;;19.96;83.33;95707.34;5122851;27;20302;-63
2021/08/11 03:41:50;;;;;;;1999.90;999.90;;;;;;;20.04;82.62;95712.38;5111232;28;20481;-64
2021/08/11 03:44:17;;;;;;;1999.90;999.90;;;;;;;20.00;82.99;95718.72;5111798;28;20199;-63
2021/08/11 03:46:46;;;;;;;1999.90;999.90;;;;;;;20.08;82.76;95723.00;5111488;28;20570;-64
2021/08/11 03:49:13;;;;;;;1999.90;999.90;;;;;;;20.24;82.18;95721.06;5115031;27;20697;-64
2021/08/11 03:51:40;;;;;;;1999.90;999.90;;;;;;;20.35;81.98;95719.41;5119450;27;21019;-64
2021/08/11 03:54:08;;;;;;;1999.90;999.90;;;;;;;20.43;81.57;95720.28;5117477;27;20337;-63
2021/08/11 03:56:35;;;;;;;1999.90;999.90;;;;;;;20.44;81.70;95727.88;5111843;28;20199;-64
2021/08/11 03:59:02;;;;;;;1999.90;999.90;;;;;;;20.48;81.80;95733.22;5110908;28;20209;-60
2021/08/11 04:01:29;;;;;;;1999.90;999.90;;;;;;;20.58;81.91;95740.56;5108073;28;20499;-66
2021/08/11 04:03:58;;;;;;;1999.90;999.90;;;;;;;20.71;80.92;95741.16;5111641;27;20203;-65
2021/08/11 04:06:25;;;;;;;1999.90;999.90;;;;;;;20.85;79.33;95736.88;5104419;27;20204;-65
2021/08/11 04:08:52;;;;;;;1999.90;999.90;;;;;;;20.89;79.52;95740.34;5108005;28;20217;-64
2021/08/11 04:11:19;;;;;;;1999.90;999.90;;;;;;;20.97;79.41;95741.97;5111195;28;20509;-64
2021/08/11 04:13:47;;;;;;;1999.90;999.90;;;;;;;21.20;79.13;95746.53;5107183;28;20276;-62
2021/08/11 04:16:14;;;;;;;1999.90;999.90;;;;;;;21.40;77.71;95745.31;5090665;28;20212;-62
2021/08/11 04:18:41;;;;;;;1999.90;999.90;;;;;;;21.55;76.03;95746.28;5088231;28;20206;-63
2021/08/11 04:21:10;;;;;;;1999.90;999.90;;;;;;;21.66;75.48;95747.19;5088776;28;20199;-62
2021/08/11 04:23:37;;;;;;;1999.90;999.90;;;;;;;21.54;79.66;95745.50;5088852;28;20679;-63
2021/08/11 04:26:04;;;;;;;1999.90;999.90;;;;;;;21.35;82.67;95748.25;5089067;28;20682;-63
2021/08/11 04:28:31;;;;;;;1999.90;999.90;;;;;;;21.34;83.58;95742.19;5088149;28;20252;-63
2021/08/11 04:30:58;;;;;;;1999.90;999.90;;;;;;;21.13;84.17;95746.38;5090128;28;20224;-63
2021/08/11 04:33:26;;;;;;;1999.90;999.90;;;;;;;21.26;84.12;95750.41;5091515;28;20203;-63
2021/08/11 04:35:53;;;;;;;1999.90;999.90;;;;;;;21.26;84.39;95748.50;5091527;28;20282;-68
2021/08/11 04:38:22;;;;;;;1999.90;999.90;;;;;;;21.41;83.56;95746.84;5091450;28;20206;-63
2021/08/11 04:40:49;;;;;;;1999.90;999.90;;;;;;;21.26;82.77;95751.16;5099615;28;20276;-63
2021/08/11 04:43:16;;;;;;;1999.90;999.90;;;;;;;21.36;82.76;95749.78;5111824;28;20197;-63
2021/08/11 04:45:43;;;;;;;1999.90;999.90;;;;;;;21.16;84.67;95743.06;5111723;28;20400;-64
2021/08/11 04:48:11;;;;;;;1999.90;999.90;;;;;;;21.08;85.04;95738.72;5112063;28;20195;-63
2021/08/11 04:50:38;;;;;;;1999.90;999.90;;;;;;;21.21;84.30;95738.25;5111513;28;20218;-63
2021/08/11 04:53:05;;;;;;;1999.90;999.90;;;;;;;21.50;82.53;95730.72;5111838;28;20203;-64
2021/08/11 04:55:34;;;;;;;1999.90;999.90;;;;;;;21.73;81.13;95736.69;5111577;28;20210;-63
2021/08/11 04:58:01;;;;;;;1999.90;999.90;;;;;;;21.97;79.88;95730.22;5111371;28;20196;-63
2021/08/11 05:00:28;;;;;;;1999.90;999.90;;;;;;;22.28;79.10;95737.75;5114238;27;20768;-63
2021/08/11 05:02:55;;;;;;;1999.90;999.90;;;;;;;22.26;77.39;95737.38;5119805;27;20286;-64
2021/08/11 05:05:24;;;;;;;1999.90;999.90;;;;;;;22.42;77.47;95739.78;5111645;28;20210;-64
2021/08/11 05:07:52;;;;;;;1999.90;999.90;;;;;;;22.69;78.13;95739.31;5111539;28;20191;-63
2021/08/11 05:10:19;;;;;;;1999.90;999.90;;;;;;;23.03;78.80;95747.19;5110168;28;20195;-63
2021/08/11 05:12:48;;;;;;;1999.90;999.90;;;;;;;23.14;77.67;95750.72;5111291;28;20202;-63
2021/08/11 05:15:15;;;;;;;1999.90;999.90;;;;;;;23.09;77.76;95757.13;5111153;28;20692;-63
2021/08/11 05:17:43;;;;;;;1999.90;999.90;;;;;;;23.20;77.16;95751.91;5111143;28;20770;-63
2021/08/11 05:20:12;;;;;;;1999.90;999.90;;;;;;;23.22;76.31;95744.31;5111137;28;20227;-63
2021/08/11 05:22:39;;;;;;;1999.90;999.90;;;;;;;23.37;75.29;95737.22;5111151;28;20282;-63
2021/08/11 05:25:07;;;;;;;1999.90;999.90;;;;;;;23.11;76.43;95748.81;5110809;28;20567;-64
2021/08/11 05:27:34;;;;;;;1999.90;999.90;;;;;;;23.08;77.09;95750.28;5111217;28;20207;-63
2021/08/11 05:30:04;;;;;;;1999.90;999.90;;;;;;;23.09;76.73;95751.03;5110759;28;20206;-63
2021/08/11 05:32:31;;;;;;;1999.90;999.90;;;;;;;23.32;76.75;95748.19;5110811;28;20219;-63
2021/08/11 05:34:58;;;;;;;1999.90;999.90;;;;;;;23.56;74.64;95760.91;5110765;28;20629;-63
2021/08/11 05:37:26;;;;;;;1999.90;999.90;;;;;;;23.68;73.33;95755.25;5111176;28;20278;-63
2021/08/11 05:39:53;;;;;;;1999.90;999.90;;;;;;;23.59;73.38;95752.19;5110370;28;20621;-63
2021/08/11 05:42:20;;;;;;;1999.90;999.90;;;;;;;23.80;73.49;95752.31;5111003;28;20567;-63
2021/08/11 05:44:49;;;;;;;1999.90;999.90;;;;;;;23.91;72.00;95749.72;5110695;28;20206;-63
2021/08/11 05:47:18;;;;;;;1999.90;999.90;;;;;;;23.97;72.13;95756.94;5110946;28;20205;-63
2021/08/11 05:49:45;;;;;;;1999.90;999.90;;;;;;;24.02;70.01;95759.22;5110910;28;20246;-63
2021/08/11 05:52:13;;;;;;;1999.90;999.90;;;;;;;23.99;71.20;95760.00;5110486;28;20706;-63
2021/08/11 05:54:40;;;;;;;1999.90;999.90;;;;;;;23.74;71.24;95769.72;5110542;28;20837;-63
2021/08/11 05:57:08;;;;;;;1999.90;999.90;;;;;;;23.96;70.20;95768.69;5107667;28;20295;-63
2021/08/11 05:59:36;;;;;;;1999.90;999.90;;;;;;;24.17;70.11;95764.63;5110744;28;20238;-63
2021/08/11 06:02:04;;;;;;;1999.90;999.90;;;;;;;24.27;70.68;95766.56;5110877;28;20199;-63
2021/08/11 06:04:32;;;;;;;1999.90;999.90;;;;;;;24.25;69.13;95761.66;5110461;28;20732;-63
2021/08/11 06:06:59;;;;;;;1999.90;999.90;;;;;;;24.43;68.64;95759.78;5110732;28;20203;-63
2021/08/11 06:09:26;;;;;;;1999.90;999.90;;;;;;;24.42;67.37;95762.81;5110621;28;20199;-63
2021/08/11 06:11:53;;;;;;;1999.90;999.90;;;;;;;24.74;66.80;95757.59;5110632;28;20279;-63
2021/08/11 06:14:21;;;;;;;1999.90;999.90;;;;;;;24.94;65.66;95753.47;5110259;28;20667;-63
2021/08/11 06:16:48;;;;;;;1999.90;999.90;;;;;;;24.96;66.45;95761.81;5110331;28;20195;-63
2021/08/11 06:19:15;;;;;;;1999.90;999.90;;;;;;;25.09;65.55;95757.66;5110091;28;20679;-63
2021/08/11 06:21:44;;;;;;;1999.90;999.90;;;;;;;25.09;65.09;95754.22;5111964;28;20709;-63
2021/08/11 06:24:11;;;;;;;1999.90;999.90;;;;;;;25.15;63.80;95748.16;5114686;28;20232;-63
2021/08/11 06:26:40;;;;;;;1999.90;999.90;;;;;;;25.32;63.67;95751.94;5114859;28;20198;-63
2021/08/11 06:29:08;;;;;;;1999.90;999.90;;;;;;;25.55;62.40;95755.00;5114495;28;20213;-63
2021/08/11 06:31:35;;;;;;;1999.90;999.90;;;;;;;25.79;62.57;95747.31;5114450;28;20318;-63
2021/08/11 06:34:02;;;;;;;1999.90;999.90;;;;;;;26.06;61.91;95743.03;5114724;28;20199;-64
2021/08/11 06:36:29;;;;;;;1999.90;999.90;;;;;;;26.30;60.10;95749.44;5114619;28;20553;-63
2021/08/11 06:38:58;;;;;;;1999.90;999.90;;;;;;;26.43;59.50;95742.53;5114296;28;20206;-63
2021/08/11 06:41:25;;;;;;;1999.90;999.90;;;;;;;26.47;60.70;95744.03;5100662;28;21084;-63
2021/08/11 06:43:52;;;;;;;1999.90;999.90;;;;;;;26.61;59.03;95745.84;5093787;28;20200;-63
2021/08/11 06:46:19;;;;;;;1999.90;999.90;;;;;;;26.21;60.22;95744.50;5094124;28;20583;-63
2021/08/11 06:48:46;;;;;;;1999.90;999.90;;;;;;;25.97;60.97;95745.34;5093634;28;20195;-63
2021/08/11 06:51:13;;;;;;;1999.90;999.90;;;;;;;25.92;61.92;95738.53;5093853;28;20307;-64
2021/08/11 06:53:40;;;;;;;1999.90;999.90;;;;;;;25.96;61.57;95744.59;5093916;28;20599;-64
2021/08/11 06:56:09;;;;;;;1999.90;999.90;;;;;;;26.17;61.46;95735.75;5093793;28;20245;-63
2021/08/11 06:58:37;;;;;;;1999.90;999.90;;;;;;;26.32;61.00;95729.25;5093482;28;20200;-63
2021/08/11 07:01:04;;;;;;;1999.90;999.90;;;;;;;26.59;58.94;95734.06;5093422;28;20207;-63
2021/08/11 07:03:31;;;;;;;1999.90;999.90;;;;;;;26.69;57.59;95738.56;5093478;28;20203;-63
2021/08/11 07:05:59;;;;;;;1999.90;999.90;;;;;;;26.89;57.31;95729.69;5093473;28;20195;-63
2021/08/11 07:08:26;;;;;;;1999.90;999.90;;;;;;;26.96;55.90;95734.97;5093333;28;20221;-66
2021/08/11 07:10:53;;;;;;;1999.90;999.90;;;;;;;27.05;56.25;95731.09;5093277;28;20203;-63
2021/08/11 07:13:22;;;;;;;1999.90;999.90;;;;;;;27.28;56.49;95728.59;5093455;28;20605;-64
2021/08/11 07:15:50;;;;;;;1999.90;999.90;;;;;;;27.32;55.75;95732.00;5093108;28;20664;-63
2021/08/11 07:18:19;;;;;;;1999.90;999.90;;;;;;;27.49;55.65;95731.13;5093427;28;20226;-64
2021/08/11 07:20:46;;;;;;;1999.90;999.90;;;;;;;27.64;53.17;95734.41;5093063;28;20703;-64
2021/08/11 07:23:14;;;;;;;1999.90;999.90;;;;;;;27.89;51.18;95732.22;5093140;28;20203;-64
2021/08/11 07:25:41;;;;;;;1999.90;999.90;;;;;;;27.84;53.95;95743.34;5093245;28;20300;-64
2021/08/11 07:28:08;;;;;;;1999.90;999.90;;;;;;;28.00;55.01;95742.75;5092961;28;20203;-64
2021/08/11 07:30:37;;;;;;;1999.90;999.90;;;;;;;28.17;51.27;95731.91;5093099;28;20211;-63
2021/08/11 07:33:07;;;;;;;1999.90;999.90;;;;;;;28.31;50.60;95730.97;5091826;28;20837;-64
2021/08/11 07:35:34;;;;;;;1999.90;999.90;;;;;;;28.46;50.01;95724.25;5093083;28;20279;-63
2021/08/11 07:38:02;;;;;;;1999.90;999.90;;;;;;;28.55;46.79;95723.75;5093210;28;20206;-64
2021/08/11 07:40:30;;;;;;;1999.90;999.90;;;;;;;28.74;47.11;95728.50;5098078;28;20231;-64
2021/08/11 07:42:59;;;;;;;1999.90;999.90;;;;;;;29.06;49.70;95736.00;5113330;28;20214;-64
2021/08/11 07:45:29;;;;;;;1999.90;999.90;;;;;;;29.03;48.13;95732.25;5113079;28;20558;-64
2021/08/11 07:47:59;;;;;;;1999.90;999.90;;;;;;;29.37;45.86;95732.09;5112986;28;20190;-64
2021/08/11 07:50:28;;;;;;;1999.90;999.90;;;;;;;29.62;46.90;95728.22;5113191;28;20199;-64
2021/08/11 07:52:55;;;;;;;1999.90;999.90;;;;;;;29.81;46.40;95724.78;5108092;28;20212;-65
2021/08/11 07:55:23;;;;;;;1999.90;999.90;;;;;;;29.83;46.25;95712.50;5092526;28;20199;-64
2021/08/11 07:57:50;;;;;;;1999.90;999.90;;;;;;;30.18;43.34;95712.97;5092692;28;20210;-64
2021/08/11 08:00:19;;;;;;;1999.90;999.90;;;;;;;30.13;44.17;95700.81;5092282;28;20265;-64
2021/08/11 08:02:46;;;;;;;1999.90;999.90;;;;;;;30.38;44.33;95702.97;5092688;28;20271;-64
2021/08/11 08:05:15;;;;;;;1999.90;999.90;;;;;;;30.19;45.19;95701.06;5092148;28;20265;-63
2021/08/11 08:07:42;;;;;;;1999.90;999.90;;;;;;;30.43;44.83;95694.44;5092207;28;20202;-63
2021/08/11 08:10:10;;;;;;;1999.90;999.90;;;;;;;30.64;42.94;95703.94;5092336;28;20199;-63
2021/08/11 08:12:38;;;;;;;1999.90;999.90;;;;;;;30.76;41.58;95701.34;5092409;28;20223;-64
2021/08/11 08:15:06;;;;;;;1999.90;999.90;;;;;;;30.74;42.88;95701.00;5092035;28;20242;-64
2021/08/11 08:17:34;;;;;;;1999.90;999.90;;;;;;;30.83;43.32;95705.06;5092314;28;20199;-64
2021/08/11 08:20:01;;;;;;;1999.90;999.90;;;;;;;30.87;42.80;95708.41;5091931;28;20211;-65
2021/08/11 08:22:29;;;;;;;1999.90;999.90;;;;;;;30.85;41.71;95711.50;5092098;28;20203;-65
2021/08/11 08:24:56;;;;;;;1999.90;999.90;;;;;;;30.69;42.85;95703.44;5091876;28;20664;-65
2021/08/11 08:27:24;;;;;;;1999.90;999.90;;;;;;;30.96;39.24;95697.84;5092348;28;20207;-65
2021/08/11 08:29:52;;;;;;;1999.90;999.90;;;;;;;31.35;38.23;95692.28;5091681;28;20202;-65
2021/08/11 08:32:19;;;;;;;1999.90;999.90;;;;;;;31.28;37.98;95692.47;5091919;28;20580;-64
2021/08/11 08:34:46;;;;;;;1999.90;999.90;;;;;;;31.29;38.79;95687.81;5091707;28;20206;-64
2021/08/11 08:37:13;;;;;;;1999.90;999.90;;;;;;;31.54;39.42;95690.63;5092005;28;20196;-63
2021/08/11 08:39:42;;;;;;;1999.90;999.90;;;;;;;31.52;38.03;95691.06;5091280;28;20188;-65
2021/08/11 08:42:11;;;;;;;1999.90;999.90;;;;;;;31.29;38.68;95685.13;5110944;28;20183;-63
2021/08/11 08:44:38;;;;;;;1999.90;999.90;;;;;;;31.51;39.67;95680.72;5111830;28;20269;-64
2021/08/11 08:47:06;;;;;;;1999.90;999.90;;;;;;;31.96;38.37;95686.81;5111760;28;20207;-64
2021/08/11 08:49:33;;;;;;;1999.90;999.90;;;;;;;32.19;38.71;95687.72;5111648;28;20202;-64
2021/08/11 08:52:00;;;;;;;1999.90;999.90;;;;;;;32.33;37.27;95687.31;5111826;28;20645;-64
2021/08/11 08:54:30;;;;;;;1999.90;999.90;;;;;;;32.07;38.93;95683.06;5111648;28;20194;-64
2021/08/11 08:56:58;;;;;;;1999.90;999.90;;;;;;;32.44;35.44;95672.34;5111532;28;20195;-64
2021/08/11 08:59:26;;;;;;;1999.90;999.90;;;;;;;32.60;35.49;95676.09;5111561;28;20201;-64
2021/08/11 09:01:53;;;;;;;1999.90;999.90;;;;;;;32.53;33.53;95668.25;5111945;28;20196;-65
2021/08/11 09:04:20;;;;;;;1999.90;999.90;;;;;;;32.46;35.59;95671.91;5111825;28;20203;-64
2021/08/11 09:06:47;;;;;;;1999.90;999.90;;;;;;;32.36;35.24;95673.75;5111350;28;20199;-65
2021/08/11 09:09:14;;;;;;;1999.90;999.90;;;;;;;32.76;34.62;95665.25;5111406;28;20583;-65
2021/08/11 09:11:43;;;;;;;1999.90;999.90;;;;;;;33.03;33.46;95668.19;5111626;28;20206;-65
2021/08/11 09:14:20;;;;;;;1999.90;999.90;;;;;;;33.34;32.26;95664.88;5111510;28;20195;-65
2021/08/11 09:16:49;;;;;;;1999.90;999.90;;;;;;;33.59;32.07;95659.38;5111312;28;20745;-65
2021/08/11 09:19:16;;;;;;;1999.90;999.90;;;;;;;33.78;31.96;95666.44;5111167;28;20199;-65
2021/08/11 09:21:58;;;;;;;1999.90;999.90;;;;;;;33.37;31.97;95667.47;5111071;28;20199;-63
2021/08/11 09:24:26;;;;;;;1999.90;999.90;;;;;;;33.18;30.46;95669.25;5111181;28;20223;-64
2021/08/11 09:26:54;;;;;;;1999.90;999.90;;;;;;;33.08;30.74;95664.19;5111263;28;20593;-64
2021/08/11 09:29:23;;;;;;;1999.90;999.90;;;;;;;33.31;30.15;95658.44;5111053;28;20202;-64
2021/08/11 09:31:50;;;;;;;1999.90;999.90;;;;;;;33.61;30.02;95657.78;5110879;28;20231;-64
2021/08/11 09:34:18;;;;;;;1999.90;999.90;;;;;;;34.00;29.93;95666.41;5111200;28;20199;-64
2021/08/11 09:36:49;;;;;;;1999.90;999.90;;;;;;;34.07;29.64;95672.28;5110905;28;20238;-64
2021/08/11 09:39:18;;;;;;;1999.90;999.90;;;;;;;33.57;29.13;95672.56;5111235;28;20236;-64
2021/08/11 09:41:58;;;;;;;1999.90;999.90;;;;;;;33.68;31.21;95659.47;5094467;28;20227;-64
2021/08/11 09:44:28;;;;;;;1999.90;999.90;;;;;;;33.70;30.60;95655.16;5090422;28;21045;-64
2021/08/11 09:46:55;;;;;;;1999.90;999.90;;;;;;;33.57;28.20;95645.59;5090378;28;20195;-63
2021/08/11 09:49:25;;;;;;;1999.90;999.90;;;;;;;33.54;25.54;95641.06;5090641;28;20608;-63
2021/08/11 09:52:00;;;;;;;1999.90;999.90;;;;;;;33.63;25.03;95638.44;5090094;28;20194;-64
2021/08/11 09:54:29;;;;;;;1999.90;999.90;;;;;;;33.59;25.51;95632.44;5090634;28;20266;-64
2021/08/11 09:56:57;;;;;;;1999.90;999.90;;;;;;;33.54;25.33;95638.38;5090002;28;20200;-63
2021/08/11 09:59:25;;;;;;;1999.90;999.90;;;;;;;33.47;25.07;95628.63;5107014;28;20256;-64
2021/08/11 10:02:13;;;;;;;1999.90;999.90;;;;;;;33.37;25.58;95639.78;5110674;28;20195;-64
2021/08/11 10:04:41;;;;;;;1999.90;999.90;;;;;;;33.40;26.14;95636.19;5110886;28;20186;-63
2021/08/11 10:07:10;;;;;;;1999.90;999.90;;;;;;;33.67;25.81;95639.88;5110462;28;20232;-64
2021/08/11 10:09:37;;;;;;;1999.90;999.90;;;;;;;33.52;26.08;95640.78;5110686;28;20217;-64
2021/08/11 10:12:05;;;;;;;1999.90;999.90;;;;;;;33.41;25.66;95632.31;5110318;28;20268;-64
2021/08/11 10:14:38;;;;;;;1999.90;999.90;;;;;;;33.55;25.04;95631.81;5110536;28;20694;-64
2021/08/11 10:17:07;;;;;;;1999.90;999.90;;;;;;;33.80;25.57;95636.34;5110286;28;20192;-65
2021/08/11 10:19:34;;;;;;;1999.90;999.90;;;;;;;33.64;24.31;95632.63;5110346;28;20191;-64
2021/08/11 10:22:02;;;;;;;1999.90;999.90;;;;;;;33.56;24.79;95620.59;5110449;28;20203;-65
2021/08/11 10:24:31;;;;;;;1999.90;999.90;;;;;;;33.31;25.21;95626.09;5110217;28;20695;-64
2021/08/11 10:26:58;;;;;;;1999.90;999.90;;;;;;;33.31;25.97;95623.41;5110332;28;20191;-64
2021/08/11 10:29:26;;;;;;;1999.90;999.90;;;;;;;33.49;24.64;95618.13;5110256;28;20666;-64
2021/08/11 10:31:54;;;;;;;1999.90;999.90;;;;;;;33.26;25.70;95618.59;5110186;28;20552;-65
2021/08/11 10:34:25;;;;;;;1999.90;999.90;;;;;;;33.17;25.03;95624.66;5110136;28;20244;-64
2021/08/11 10:36:52;;;;;;;1999.90;999.90;;;;;;;33.11;25.52;95620.22;5110392;28;20198;-65
2021/08/11 10:39:20;;;;;;;1999.90;999.90;;;;;;;33.16;24.47;95617.00;5110083;28;20244;-65
2021/08/11 10:41:47;;;;;;;1999.90;999.90;;;;;;;33.08;26.18;95611.06;5093484;28;20231;-65
2021/08/11 10:44:20;;;;;;;1999.90;999.90;;;;;;;33.05;25.68;95611.19;5089673;28;20695;-65
2021/08/11 10:46:54;;;;;;;1999.90;999.90;;;;;;;32.81;26.45;95600.81;5089754;28;20207;-65
2021/08/11 10:49:27;;;;;;;1999.90;999.90;;;;;;;32.91;24.61;95595.53;5089902;28;20553;-64
2021/08/11 10:51:59;;;;;;;1999.90;999.90;;;;;;;33.07;25.36;95590.72;5090044;28;20218;-65
2021/08/11 10:54:27;;;;;;;1999.90;999.90;;;;;;;33.09;23.79;95587.56;5089730;28;20275;-64
2021/08/11 10:56:55;;;;;;;1999.90;999.90;;;;;;;33.20;23.45;95577.97;5089891;28;20268;-65
2021/08/11 10:59:44;;;;;;;1999.90;999.90;;;;;;;33.40;24.08;95579.59;5089921;28;20787;-64
2021/08/11 11:02:49;;;;;;;1999.90;999.90;;;;;;;33.79;23.70;95570.84;5083675;28;20581;-65